sensor_id;sensor_type;location;lat;lon;timestamp;P1;durP1;ratioP1;P2;durP2;ratioP2
39266;SDS011;24967;51.154;13.812;2024-03-29T00:01:34;1.08;;;0.85;;
39266;SDS011;24967;51.154;13.812;2024-03-29T00:04:00;0.60;;;0.60;;
39266;SDS011;24967;51.154;13.812;2024-03-29T00:06:27;2.42;;;0.90;;
39266;SDS011;24967;51.154;13.812;2024-03-29T00:08:52;2.13;;;0.60;;
39266;SDS011;24967;51.154;13.812;2024-03-29T00:11:18;1.40;;;0.70;;
39266;SDS011;24967;51.154;13.812;2024-03-29T00:13:43;1.30;;;0.88;;
39266;SDS011;24967;51.154;13.812;2024-03-29T00:16:09;1.45;;;0.68;;
39266;SDS011;24967;51.154;13.812;2024-03-29T00:18:34;0.82;;;0.70;;
39266;SDS011;24967;51.154;13.812;2024-03-29T00:20:59;0.98;;;0.98;;
39266;SDS011;24967;51.154;13.812;2024-03-29T00:23:26;0.93;;;0.60;;
39266;SDS011;24967;51.154;13.812;2024-03-29T00:25:52;0.80;;;0.68;;
39266;SDS011;24967;51.154;13.812;2024-03-29T00:28:17;0.70;;;0.70;;
39266;SDS011;24967;51.154;13.812;2024-03-29T00:30:43;1.52;;;0.88;;
39266;SDS011;24967;51.154;13.812;2024-03-29T00:33:08;0.93;;;0.70;;
39266;SDS011;24967;51.154;13.812;2024-03-29T00:35:34;0.60;;;0.60;;
39266;SDS011;24967;51.154;13.812;2024-03-29T00:37:59;0.65;;;0.60;;
39266;SDS011;24967;51.154;13.812;2024-03-29T00:40:26;0.77;;;0.73;;
39266;SDS011;24967;51.154;13.812;2024-03-29T00:42:52;1.33;;;0.65;;
39266;SDS011;24967;51.154;13.812;2024-03-29T00:45:17;0.70;;;0.55;;
39266;SDS011;24967;51.154;13.812;2024-03-29T00:47:43;1.05;;;0.70;;
39266;SDS011;24967;51.154;13.812;2024-03-29T00:50:08;2.05;;;0.65;;
39266;SDS011;24967;51.154;13.812;2024-03-29T00:52:34;0.65;;;0.65;;
39266;SDS011;24967;51.154;13.812;2024-03-29T00:55:00;1.48;;;0.90;;
39266;SDS011;24967;51.154;13.812;2024-03-29T00:57:27;2.15;;;1.35;;
39266;SDS011;24967;51.154;13.812;2024-03-29T00:59:52;2.63;;;1.35;;
39266;SDS011;24967;51.154;13.812;2024-03-29T01:02:18;0.40;;;0.40;;
39266;SDS011;24967;51.154;13.812;2024-03-29T01:04:46;0.60;;;0.60;;
39266;SDS011;24967;51.154;13.812;2024-03-29T01:07:11;1.55;;;0.60;;
39266;SDS011;24967;51.154;13.812;2024-03-29T01:09:37;2.25;;;0.77;;
39266;SDS011;24967;51.154;13.812;2024-03-29T01:12:02;2.05;;;0.65;;
39266;SDS011;24967;51.154;13.812;2024-03-29T01:14:30;0.52;;;0.50;;
39266;SDS011;24967;51.154;13.812;2024-03-29T01:16:55;0.70;;;0.55;;
39266;SDS011;24967;51.154;13.812;2024-03-29T01:19:21;0.60;;;0.60;;
39266;SDS011;24967;51.154;13.812;2024-03-29T01:21:47;2.22;;;0.70;;
39266;SDS011;24967;51.154;13.812;2024-03-29T01:24:13;0.75;;;0.75;;
39266;SDS011;24967;51.154;13.812;2024-03-29T01:26:41;1.90;;;0.68;;
39266;SDS011;24967;51.154;13.812;2024-03-29T01:29:11;1.63;;;0.63;;
39266;SDS011;24967;51.154;13.812;2024-03-29T01:31:39;1.85;;;0.93;;
39266;SDS011;24967;51.154;13.812;2024-03-29T01:34:05;0.95;;;0.57;;
39266;SDS011;24967;51.154;13.812;2024-03-29T01:36:35;0.68;;;0.68;;
39266;SDS011;24967;51.154;13.812;2024-03-29T01:39:00;2.35;;;0.63;;
39266;SDS011;24967;51.154;13.812;2024-03-29T01:41:26;2.45;;;0.75;;
39266;SDS011;24967;51.154;13.812;2024-03-29T01:43:53;0.50;;;0.38;;
39266;SDS011;24967;51.154;13.812;2024-03-29T01:46:20;0.63;;;0.57;;
39266;SDS011;24967;51.154;13.812;2024-03-29T01:48:54;1.25;;;0.75;;
39266;SDS011;24967;51.154;13.812;2024-03-29T01:51:20;1.45;;;0.60;;
39266;SDS011;24967;51.154;13.812;2024-03-29T01:53:47;1.30;;;0.70;;
39266;SDS011;24967;51.154;13.812;2024-03-29T01:56:20;1.17;;;0.75;;
39266;SDS011;24967;51.154;13.812;2024-03-29T01:58:51;4.75;;;1.00;;
39266;SDS011;24967;51.154;13.812;2024-03-29T02:01:22;0.73;;;0.68;;
39266;SDS011;24967;51.154;13.812;2024-03-29T02:03:54;0.68;;;0.40;;
39266;SDS011;24967;51.154;13.812;2024-03-29T02:06:24;1.25;;;0.70;;
39266;SDS011;24967;51.154;13.812;2024-03-29T02:08:51;1.00;;;0.60;;
39266;SDS011;24967;51.154;13.812;2024-03-29T02:11:18;0.70;;;0.70;;
39266;SDS011;24967;51.154;13.812;2024-03-29T02:13:47;2.30;;;0.50;;
39266;SDS011;24967;51.154;13.812;2024-03-29T02:16:14;0.90;;;0.60;;
39266;SDS011;24967;51.154;13.812;2024-03-29T02:18:40;1.75;;;0.60;;
39266;SDS011;24967;51.154;13.812;2024-03-29T02:21:12;0.50;;;0.50;;
39266;SDS011;24967;51.154;13.812;2024-03-29T02:23:44;3.97;;;0.68;;
39266;SDS011;24967;51.154;13.812;2024-03-29T02:26:20;3.42;;;0.65;;
39266;SDS011;24967;51.154;13.812;2024-03-29T02:28:47;0.40;;;0.40;;
39266;SDS011;24967;51.154;13.812;2024-03-29T02:31:14;2.10;;;0.63;;
39266;SDS011;24967;51.154;13.812;2024-03-29T02:33:41;1.58;;;0.55;;
39266;SDS011;24967;51.154;13.812;2024-03-29T02:36:09;1.17;;;0.60;;
39266;SDS011;24967;51.154;13.812;2024-03-29T02:38:36;3.30;;;0.60;;
39266;SDS011;24967;51.154;13.812;2024-03-29T02:41:05;2.85;;;0.63;;
39266;SDS011;24967;51.154;13.812;2024-03-29T02:43:32;1.10;;;0.55;;
39266;SDS011;24967;51.154;13.812;2024-03-29T02:46:01;1.40;;;0.47;;
39266;SDS011;24967;51.154;13.812;2024-03-29T02:48:27;3.33;;;0.70;;
39266;SDS011;24967;51.154;13.812;2024-03-29T02:50:53;0.70;;;0.45;;
39266;SDS011;24967;51.154;13.812;2024-03-29T02:53:18;1.15;;;0.65;;
39266;SDS011;24967;51.154;13.812;2024-03-29T02:55:44;1.80;;;0.50;;
39266;SDS011;24967;51.154;13.812;2024-03-29T02:58:11;1.02;;;0.60;;
39266;SDS011;24967;51.154;13.812;2024-03-29T03:00:39;3.05;;;0.75;;
39266;SDS011;24967;51.154;13.812;2024-03-29T03:03:05;4.07;;;0.82;;
39266;SDS011;24967;51.154;13.812;2024-03-29T03:05:32;4.38;;;0.70;;
39266;SDS011;24967;51.154;13.812;2024-03-29T03:07:59;1.88;;;0.75;;
39266;SDS011;24967;51.154;13.812;2024-03-29T03:10:46;3.35;;;0.65;;
39266;SDS011;24967;51.154;13.812;2024-03-29T03:13:33;2.53;;;0.57;;
39266;SDS011;24967;51.154;13.812;2024-03-29T03:16:01;1.40;;;0.50;;
39266;SDS011;24967;51.154;13.812;2024-03-29T03:18:32;2.42;;;0.52;;
39266;SDS011;24967;51.154;13.812;2024-03-29T03:20:59;1.02;;;0.40;;
39266;SDS011;24967;51.154;13.812;2024-03-29T03:23:24;1.63;;;0.50;;
39266;SDS011;24967;51.154;13.812;2024-03-29T03:25:54;2.50;;;0.60;;
39266;SDS011;24967;51.154;13.812;2024-03-29T03:28:20;0.63;;;0.50;;
39266;SDS011;24967;51.154;13.812;2024-03-29T03:30:46;4.82;;;0.88;;
39266;SDS011;24967;51.154;13.812;2024-03-29T03:33:16;4.22;;;0.70;;
39266;SDS011;24967;51.154;13.812;2024-03-29T03:35:47;1.23;;;0.60;;
39266;SDS011;24967;51.154;13.812;2024-03-29T03:38:13;1.75;;;0.60;;
39266;SDS011;24967;51.154;13.812;2024-03-29T03:40:40;0.90;;;0.52;;
39266;SDS011;24967;51.154;13.812;2024-03-29T03:43:06;1.55;;;0.60;;
39266;SDS011;24967;51.154;13.812;2024-03-29T03:45:33;0.95;;;0.60;;
39266;SDS011;24967;51.154;13.812;2024-03-29T03:47:59;2.78;;;0.88;;
39266;SDS011;24967;51.154;13.812;2024-03-29T03:50:26;2.45;;;0.80;;
39266;SDS011;24967;51.154;13.812;2024-03-29T03:52:52;1.88;;;0.90;;
39266;SDS011;24967;51.154;13.812;2024-03-29T03:55:18;4.55;;;1.00;;
39266;SDS011;24967;51.154;13.812;2024-03-29T03:57:43;1.10;;;0.95;;
39266;SDS011;24967;51.154;13.812;2024-03-29T04:00:10;1.20;;;0.88;;
39266;SDS011;24967;51.154;13.812;2024-03-29T04:02:36;4.25;;;0.85;;
39266;SDS011;24967;51.154;13.812;2024-03-29T04:05:03;2.67;;;1.00;;
39266;SDS011;24967;51.154;13.812;2024-03-29T04:07:30;2.58;;;0.85;;
39266;SDS011;24967;51.154;13.812;2024-03-29T04:09:56;2.47;;;1.10;;
39266;SDS011;24967;51.154;13.812;2024-03-29T04:12:22;3.13;;;1.05;;
39266;SDS011;24967;51.154;13.812;2024-03-29T04:14:48;4.88;;;0.90;;
39266;SDS011;24967;51.154;13.812;2024-03-29T04:17:13;3.22;;;1.00;;
39266;SDS011;24967;51.154;13.812;2024-03-29T04:19:40;1.98;;;0.80;;
39266;SDS011;24967;51.154;13.812;2024-03-29T04:22:05;1.67;;;0.80;;
39266;SDS011;24967;51.154;13.812;2024-03-29T04:24:33;1.92;;;0.75;;
39266;SDS011;24967;51.154;13.812;2024-03-29T04:26:58;2.83;;;0.95;;
39266;SDS011;24967;51.154;13.812;2024-03-29T04:29:25;2.33;;;0.80;;
39266;SDS011;24967;51.154;13.812;2024-03-29T04:31:50;1.15;;;0.93;;
39266;SDS011;24967;51.154;13.812;2024-03-29T04:34:16;3.13;;;0.98;;
39266;SDS011;24967;51.154;13.812;2024-03-29T04:36:42;1.58;;;1.20;;
39266;SDS011;24967;51.154;13.812;2024-03-29T04:39:08;1.08;;;0.90;;
39266;SDS011;24967;51.154;13.812;2024-03-29T04:41:36;6.50;;;1.45;;
39266;SDS011;24967;51.154;13.812;2024-03-29T04:44:02;2.58;;;1.27;;
39266;SDS011;24967;51.154;13.812;2024-03-29T04:46:29;2.38;;;1.42;;
39266;SDS011;24967;51.154;13.812;2024-03-29T04:48:57;1.92;;;0.80;;
39266;SDS011;24967;51.154;13.812;2024-03-29T04:51:24;1.33;;;0.88;;
39266;SDS011;24967;51.154;13.812;2024-03-29T04:53:50;1.50;;;0.90;;
39266;SDS011;24967;51.154;13.812;2024-03-29T04:56:16;1.58;;;1.15;;
39266;SDS011;24967;51.154;13.812;2024-03-29T04:58:44;1.92;;;1.02;;
39266;SDS011;24967;51.154;13.812;2024-03-29T05:01:11;1.77;;;1.10;;
39266;SDS011;24967;51.154;13.812;2024-03-29T05:03:38;1.55;;;0.95;;
39266;SDS011;24967;51.154;13.812;2024-03-29T05:06:04;1.55;;;0.90;;
39266;SDS011;24967;51.154;13.812;2024-03-29T05:08:31;1.35;;;1.25;;
39266;SDS011;24967;51.154;13.812;2024-03-29T05:10:57;2.45;;;1.10;;
39266;SDS011;24967;51.154;13.812;2024-03-29T05:13:23;1.23;;;1.10;;
39266;SDS011;24967;51.154;13.812;2024-03-29T05:15:51;1.08;;;0.93;;
39266;SDS011;24967;51.154;13.812;2024-03-29T05:18:17;1.10;;;0.98;;
39266;SDS011;24967;51.154;13.812;2024-03-29T05:20:44;2.25;;;1.10;;
39266;SDS011;24967;51.154;13.812;2024-03-29T05:25:41;4.45;;;1.75;;
39266;SDS011;24967;51.154;13.812;2024-03-29T05:28:08;1.27;;;1.00;;
39266;SDS011;24967;51.154;13.812;2024-03-29T05:30:34;1.45;;;1.10;;
39266;SDS011;24967;51.154;13.812;2024-03-29T05:33:03;1.38;;;0.65;;
39266;SDS011;24967;51.154;13.812;2024-03-29T05:35:29;2.60;;;1.00;;
39266;SDS011;24967;51.154;13.812;2024-03-29T05:37:55;2.72;;;1.02;;
39266;SDS011;24967;51.154;13.812;2024-03-29T05:40:23;1.30;;;0.90;;
39266;SDS011;24967;51.154;13.812;2024-03-29T05:42:52;0.90;;;0.90;;
39266;SDS011;24967;51.154;13.812;2024-03-29T05:45:22;1.13;;;0.85;;
39266;SDS011;24967;51.154;13.812;2024-03-29T05:47:51;1.20;;;1.10;;
39266;SDS011;24967;51.154;13.812;2024-03-29T05:50:18;1.58;;;0.80;;
39266;SDS011;24967;51.154;13.812;2024-03-29T05:52:45;1.90;;;1.00;;
39266;SDS011;24967;51.154;13.812;2024-03-29T05:55:11;2.20;;;1.05;;
39266;SDS011;24967;51.154;13.812;2024-03-29T05:57:38;1.67;;;0.70;;
39266;SDS011;24967;51.154;13.812;2024-03-29T06:00:06;1.48;;;0.90;;
39266;SDS011;24967;51.154;13.812;2024-03-29T06:02:34;0.80;;;0.80;;
39266;SDS011;24967;51.154;13.812;2024-03-29T06:05:00;1.67;;;0.88;;
39266;SDS011;24967;51.154;13.812;2024-03-29T06:07:28;1.48;;;0.80;;
39266;SDS011;24967;51.154;13.812;2024-03-29T06:09:56;2.17;;;0.95;;
39266;SDS011;24967;51.154;13.812;2024-03-29T06:12:22;3.30;;;1.15;;
39266;SDS011;24967;51.154;13.812;2024-03-29T06:17:17;1.60;;;0.80;;
39266;SDS011;24967;51.154;13.812;2024-03-29T06:19:50;2.33;;;0.90;;
39266;SDS011;24967;51.154;13.812;2024-03-29T06:22:20;3.63;;;0.80;;
39266;SDS011;24967;51.154;13.812;2024-03-29T06:24:55;1.83;;;0.70;;
39266;SDS011;24967;51.154;13.812;2024-03-29T06:27:25;2.78;;;1.00;;
39266;SDS011;24967;51.154;13.812;2024-03-29T06:29:55;1.83;;;0.90;;
39266;SDS011;24967;51.154;13.812;2024-03-29T06:32:22;1.67;;;0.93;;
39266;SDS011;24967;51.154;13.812;2024-03-29T06:34:49;2.42;;;0.80;;
39266;SDS011;24967;51.154;13.812;2024-03-29T06:37:15;2.35;;;1.23;;
39266;SDS011;24967;51.154;13.812;2024-03-29T06:39:42;2.05;;;0.82;;
39266;SDS011;24967;51.154;13.812;2024-03-29T06:42:09;1.92;;;0.98;;
39266;SDS011;24967;51.154;13.812;2024-03-29T06:49:39;3.00;;;0.80;;
39266;SDS011;24967;51.154;13.812;2024-03-29T06:52:05;0.95;;;0.90;;
39266;SDS011;24967;51.154;13.812;2024-03-29T06:54:32;0.90;;;0.82;;
39266;SDS011;24967;51.154;13.812;2024-03-29T06:56:58;1.02;;;1.02;;
39266;SDS011;24967;51.154;13.812;2024-03-29T06:59:26;1.05;;;0.95;;
39266;SDS011;24967;51.154;13.812;2024-03-29T07:01:53;1.98;;;0.80;;
39266;SDS011;24967;51.154;13.812;2024-03-29T07:04:19;1.38;;;0.90;;
39266;SDS011;24967;51.154;13.812;2024-03-29T07:06:46;1.13;;;1.00;;
39266;SDS011;24967;51.154;13.812;2024-03-29T07:09:16;1.20;;;1.10;;
39266;SDS011;24967;51.154;13.812;2024-03-29T07:11:42;0.95;;;0.90;;
39266;SDS011;24967;51.154;13.812;2024-03-29T07:14:09;1.20;;;0.70;;
39266;SDS011;24967;51.154;13.812;2024-03-29T07:16:36;1.40;;;0.90;;
39266;SDS011;24967;51.154;13.812;2024-03-29T07:19:02;0.85;;;0.70;;
39266;SDS011;24967;51.154;13.812;2024-03-29T07:21:29;0.77;;;0.70;;
39266;SDS011;24967;51.154;13.812;2024-03-29T07:23:56;0.82;;;0.77;;
39266;SDS011;24967;51.154;13.812;2024-03-29T07:26:22;0.80;;;0.60;;
39266;SDS011;24967;51.154;13.812;2024-03-29T07:28:48;0.60;;;0.60;;
39266;SDS011;24967;51.154;13.812;2024-03-29T07:31:15;1.67;;;0.73;;
39266;SDS011;24967;51.154;13.812;2024-03-29T07:33:42;2.15;;;0.80;;
39266;SDS011;24967;51.154;13.812;2024-03-29T07:36:09;1.33;;;0.85;;
39266;SDS011;24967;51.154;13.812;2024-03-29T07:38:36;2.58;;;1.13;;
39266;SDS011;24967;51.154;13.812;2024-03-29T07:41:03;1.60;;;0.75;;
39266;SDS011;24967;51.154;13.812;2024-03-29T07:43:37;3.80;;;2.08;;
39266;SDS011;24967;51.154;13.812;2024-03-29T07:48:39;1.17;;;0.93;;
39266;SDS011;24967;51.154;13.812;2024-03-29T07:51:07;0.73;;;0.65;;
39266;SDS011;24967;51.154;13.812;2024-03-29T07:53:33;0.63;;;0.63;;
39266;SDS011;24967;51.154;13.812;2024-03-29T07:56:00;1.33;;;0.90;;
39266;SDS011;24967;51.154;13.812;2024-03-29T07:58:26;0.77;;;0.68;;
39266;SDS011;24967;51.154;13.812;2024-03-29T08:00:53;0.70;;;0.70;;
39266;SDS011;24967;51.154;13.812;2024-03-29T08:03:19;0.60;;;0.60;;
39266;SDS011;24967;51.154;13.812;2024-03-29T08:08:23;0.70;;;0.70;;
39266;SDS011;24967;51.154;13.812;2024-03-29T08:10:52;1.75;;;0.70;;
39266;SDS011;24967;51.154;13.812;2024-03-29T08:13:19;1.10;;;0.60;;
39266;SDS011;24967;51.154;13.812;2024-03-29T08:15:46;1.58;;;0.70;;
39266;SDS011;24967;51.154;13.812;2024-03-29T08:18:12;1.50;;;0.88;;
39266;SDS011;24967;51.154;13.812;2024-03-29T08:20:39;2.15;;;0.90;;
39266;SDS011;24967;51.154;13.812;2024-03-29T08:23:05;1.35;;;0.77;;
39266;SDS011;24967;51.154;13.812;2024-03-29T08:25:33;1.45;;;0.70;;
39266;SDS011;24967;51.154;13.812;2024-03-29T08:27:59;0.75;;;0.60;;
39266;SDS011;24967;51.154;13.812;2024-03-29T08:30:26;1.75;;;0.70;;
39266;SDS011;24967;51.154;13.812;2024-03-29T08:32:59;6.22;;;0.60;;
39266;SDS011;24967;51.154;13.812;2024-03-29T08:35:27;0.50;;;0.40;;
39266;SDS011;24967;51.154;13.812;2024-03-29T08:37:52;0.60;;;0.60;;
39266;SDS011;24967;51.154;13.812;2024-03-29T08:40:19;1.38;;;0.60;;
39266;SDS011;24967;51.154;13.812;2024-03-29T08:42:48;1.35;;;0.70;;
39266;SDS011;24967;51.154;13.812;2024-03-29T08:45:14;0.70;;;0.70;;
39266;SDS011;24967;51.154;13.812;2024-03-29T08:47:40;3.10;;;0.70;;
39266;SDS011;24967;51.154;13.812;2024-03-29T08:52:42;1.85;;;0.70;;
39266;SDS011;24967;51.154;13.812;2024-03-29T08:55:09;1.85;;;0.82;;
39266;SDS011;24967;51.154;13.812;2024-03-29T08:57:36;0.55;;;0.50;;
39266;SDS011;24967;51.154;13.812;2024-03-29T09:00:04;0.73;;;0.73;;
39266;SDS011;24967;51.154;13.812;2024-03-29T09:02:31;0.70;;;0.63;;
39266;SDS011;24967;51.154;13.812;2024-03-29T09:04:59;0.98;;;0.65;;
39266;SDS011;24967;51.154;13.812;2024-03-29T09:07:25;0.63;;;0.55;;
39266;SDS011;24967;51.154;13.812;2024-03-29T09:09:51;0.75;;;0.50;;
39266;SDS011;24967;51.154;13.812;2024-03-29T09:12:18;2.45;;;0.60;;
39266;SDS011;24967;51.154;13.812;2024-03-29T09:14:44;1.02;;;0.70;;
39266;SDS011;24967;51.154;13.812;2024-03-29T09:17:12;0.85;;;0.80;;
39266;SDS011;24967;51.154;13.812;2024-03-29T09:19:38;0.40;;;0.40;;
39266;SDS011;24967;51.154;13.812;2024-03-29T09:22:04;0.68;;;0.65;;
39266;SDS011;24967;51.154;13.812;2024-03-29T09:24:31;0.73;;;0.50;;
39266;SDS011;24967;51.154;13.812;2024-03-29T09:26:59;0.73;;;0.50;;
39266;SDS011;24967;51.154;13.812;2024-03-29T09:29:25;1.95;;;0.47;;
39266;SDS011;24967;51.154;13.812;2024-03-29T09:31:52;1.27;;;0.60;;
39266;SDS011;24967;51.154;13.812;2024-03-29T09:34:19;0.77;;;0.50;;
39266;SDS011;24967;51.154;13.812;2024-03-29T09:36:48;0.98;;;0.77;;
39266;SDS011;24967;51.154;13.812;2024-03-29T09:39:14;1.33;;;0.60;;
39266;SDS011;24967;51.154;13.812;2024-03-29T09:41:40;1.05;;;0.70;;
39266;SDS011;24967;51.154;13.812;2024-03-29T09:44:11;0.52;;;0.52;;
39266;SDS011;24967;51.154;13.812;2024-03-29T09:46:38;0.40;;;0.40;;
39266;SDS011;24967;51.154;13.812;2024-03-29T09:49:05;1.30;;;0.68;;
39266;SDS011;24967;51.154;13.812;2024-03-29T09:51:33;0.45;;;0.30;;
39266;SDS011;24967;51.154;13.812;2024-03-29T09:54:00;0.98;;;0.50;;
39266;SDS011;24967;51.154;13.812;2024-03-29T09:56:28;1.80;;;0.80;;
39266;SDS011;24967;51.154;13.812;2024-03-29T09:58:55;3.47;;;0.88;;
39266;SDS011;24967;51.154;13.812;2024-03-29T10:01:22;1.90;;;0.70;;
39266;SDS011;24967;51.154;13.812;2024-03-29T10:03:49;2.58;;;0.57;;
39266;SDS011;24967;51.154;13.812;2024-03-29T10:06:16;0.98;;;0.60;;
39266;SDS011;24967;51.154;13.812;2024-03-29T10:08:46;1.08;;;0.50;;
39266;SDS011;24967;51.154;13.812;2024-03-29T10:11:13;1.38;;;0.45;;
39266;SDS011;24967;51.154;13.812;2024-03-29T10:13:41;1.35;;;0.63;;
39266;SDS011;24967;51.154;13.812;2024-03-29T10:16:08;1.67;;;0.73;;
39266;SDS011;24967;51.154;13.812;2024-03-29T10:18:36;0.57;;;0.57;;
39266;SDS011;24967;51.154;13.812;2024-03-29T10:21:03;0.65;;;0.65;;
39266;SDS011;24967;51.154;13.812;2024-03-29T10:23:31;1.40;;;0.70;;
39266;SDS011;24967;51.154;13.812;2024-03-29T10:26:01;3.17;;;0.60;;
39266;SDS011;24967;51.154;13.812;2024-03-29T10:28:30;2.90;;;0.57;;
39266;SDS011;24967;51.154;13.812;2024-03-29T10:30:58;0.75;;;0.50;;
39266;SDS011;24967;51.154;13.812;2024-03-29T10:33:27;1.27;;;0.60;;
39266;SDS011;24967;51.154;13.812;2024-03-29T10:35:56;1.63;;;0.60;;
39266;SDS011;24967;51.154;13.812;2024-03-29T10:38:24;2.33;;;0.55;;
39266;SDS011;24967;51.154;13.812;2024-03-29T10:40:53;0.80;;;0.80;;
39266;SDS011;24967;51.154;13.812;2024-03-29T10:43:26;0.95;;;0.85;;
39266;SDS011;24967;51.154;13.812;2024-03-29T10:45:53;0.80;;;0.80;;
39266;SDS011;24967;51.154;13.812;2024-03-29T10:48:29;0.68;;;0.68;;
39266;SDS011;24967;51.154;13.812;2024-03-29T10:51:00;0.77;;;0.77;;
39266;SDS011;24967;51.154;13.812;2024-03-29T10:53:27;4.90;;;2.53;;
39266;SDS011;24967;51.154;13.812;2024-03-29T10:56:03;2.65;;;1.00;;
39266;SDS011;24967;51.154;13.812;2024-03-29T10:58:40;1.13;;;0.68;;
39266;SDS011;24967;51.154;13.812;2024-03-29T11:01:15;1.08;;;0.50;;
39266;SDS011;24967;51.154;13.812;2024-03-29T11:03:50;1.30;;;0.60;;
39266;SDS011;24967;51.154;13.812;2024-03-29T11:06:28;2.65;;;0.70;;
39266;SDS011;24967;51.154;13.812;2024-03-29T11:09:03;2.42;;;1.10;;
39266;SDS011;24967;51.154;13.812;2024-03-29T11:11:37;11.88;;;5.32;;
39266;SDS011;24967;51.154;13.812;2024-03-29T11:14:14;2.13;;;1.92;;
39266;SDS011;24967;51.154;13.812;2024-03-29T11:16:46;1.80;;;1.70;;
39266;SDS011;24967;51.154;13.812;2024-03-29T11:19:19;3.50;;;3.20;;
39266;SDS011;24967;51.154;13.812;2024-03-29T11:21:52;3.53;;;1.42;;
39266;SDS011;24967;51.154;13.812;2024-03-29T11:26:58;1.40;;;1.00;;
39266;SDS011;24967;51.154;13.812;2024-03-29T11:29:29;1.38;;;0.80;;
39266;SDS011;24967;51.154;13.812;2024-03-29T11:32:07;3.22;;;0.98;;
39266;SDS011;24967;51.154;13.812;2024-03-29T11:34:33;1.48;;;1.00;;
39266;SDS011;24967;51.154;13.812;2024-03-29T11:37:06;1.20;;;0.77;;
39266;SDS011;24967;51.154;13.812;2024-03-29T11:39:39;2.17;;;0.77;;
39266;SDS011;24967;51.154;13.812;2024-03-29T11:42:16;10.65;;;9.55;;
39266;SDS011;24967;51.154;13.812;2024-03-29T11:44:43;0.80;;;0.80;;
39266;SDS011;24967;51.154;13.812;2024-03-29T11:49:56;3.15;;;0.95;;
39266;SDS011;24967;51.154;13.812;2024-03-29T11:52:25;1.38;;;0.70;;
39266;SDS011;24967;51.154;13.812;2024-03-29T11:54:53;1.08;;;0.80;;
39266;SDS011;24967;51.154;13.812;2024-03-29T11:57:20;1.77;;;0.65;;
39266;SDS011;24967;51.154;13.812;2024-03-29T11:59:52;1.83;;;0.70;;
39266;SDS011;24967;51.154;13.812;2024-03-29T12:02:18;1.38;;;1.20;;
39266;SDS011;24967;51.154;13.812;2024-03-29T12:04:47;5.00;;;3.03;;
39266;SDS011;24967;51.154;13.812;2024-03-29T12:07:14;12.35;;;5.15;;
39266;SDS011;24967;51.154;13.812;2024-03-29T12:09:42;4.53;;;3.55;;
39266;SDS011;24967;51.154;13.812;2024-03-29T12:12:09;5.38;;;3.50;;
39266;SDS011;24967;51.154;13.812;2024-03-29T12:14:38;8.52;;;4.28;;
39266;SDS011;24967;51.154;13.812;2024-03-29T12:17:13;3.63;;;1.42;;
39266;SDS011;24967;51.154;13.812;2024-03-29T12:19:42;22.92;;;2.17;;
39266;SDS011;24967;51.154;13.812;2024-03-29T12:22:10;5.63;;;1.60;;
39266;SDS011;24967;51.154;13.812;2024-03-29T12:24:36;3.63;;;1.35;;
39266;SDS011;24967;51.154;13.812;2024-03-29T12:27:03;81.22;;;38.15;;
39266;SDS011;24967;51.154;13.812;2024-03-29T12:29:33;9.32;;;4.60;;
39266;SDS011;24967;51.154;13.812;2024-03-29T12:32:00;16.70;;;11.53;;
39266;SDS011;24967;51.154;13.812;2024-03-29T12:34:28;2.30;;;1.83;;
39266;SDS011;24967;51.154;13.812;2024-03-29T12:36:59;3.42;;;1.35;;
39266;SDS011;24967;51.154;13.812;2024-03-29T12:39:29;1.60;;;1.48;;
39266;SDS011;24967;51.154;13.812;2024-03-29T12:42:00;18.23;;;11.43;;
39266;SDS011;24967;51.154;13.812;2024-03-29T12:44:30;2.80;;;2.05;;
39266;SDS011;24967;51.154;13.812;2024-03-29T12:46:57;2.47;;;1.50;;
39266;SDS011;24967;51.154;13.812;2024-03-29T12:49:24;2.63;;;1.73;;
39266;SDS011;24967;51.154;13.812;2024-03-29T12:54:27;1.10;;;0.90;;
39266;SDS011;24967;51.154;13.812;2024-03-29T12:56:53;1.95;;;0.90;;
39266;SDS011;24967;51.154;13.812;2024-03-29T12:59:20;2.80;;;1.27;;
39266;SDS011;24967;51.154;13.812;2024-03-29T13:01:47;2.05;;;1.23;;
39266;SDS011;24967;51.154;13.812;2024-03-29T13:04:13;1.83;;;1.20;;
39266;SDS011;24967;51.154;13.812;2024-03-29T13:06:39;1.30;;;0.90;;
39266;SDS011;24967;51.154;13.812;2024-03-29T13:09:06;1.70;;;1.38;;
39266;SDS011;24967;51.154;13.812;2024-03-29T13:11:34;3.30;;;2.95;;
39266;SDS011;24967;51.154;13.812;2024-03-29T13:14:04;5.47;;;3.70;;
39266;SDS011;24967;51.154;13.812;2024-03-29T13:16:31;6.57;;;3.72;;
39266;SDS011;24967;51.154;13.812;2024-03-29T13:18:58;5.60;;;2.58;;
39266;SDS011;24967;51.154;13.812;2024-03-29T13:21:24;2.60;;;1.70;;
39266;SDS011;24967;51.154;13.812;2024-03-29T13:23:50;1.88;;;1.77;;
39266;SDS011;24967;51.154;13.812;2024-03-29T13:26:18;10.23;;;4.78;;
39266;SDS011;24967;51.154;13.812;2024-03-29T13:31:22;41.70;;;20.80;;
39266;SDS011;24967;51.154;13.812;2024-03-29T13:33:54;21.23;;;13.77;;
39266;SDS011;24967;51.154;13.812;2024-03-29T13:36:28;18.70;;;10.23;;
39266;SDS011;24967;51.154;13.812;2024-03-29T13:38:55;23.73;;;11.48;;
39266;SDS011;24967;51.154;13.812;2024-03-29T13:41:21;109.75;;;42.60;;
39266;SDS011;24967;51.154;13.812;2024-03-29T13:43:48;62.20;;;28.27;;
39266;SDS011;24967;51.154;13.812;2024-03-29T13:46:15;12.95;;;6.97;;
39266;SDS011;24967;51.154;13.812;2024-03-29T13:48:46;2.92;;;2.50;;
39266;SDS011;24967;51.154;13.812;2024-03-29T13:51:16;3.65;;;1.50;;
39266;SDS011;24967;51.154;13.812;2024-03-29T13:53:45;1.13;;;1.08;;
39266;SDS011;24967;51.154;13.812;2024-03-29T13:56:12;1.48;;;0.73;;
39266;SDS011;24967;51.154;13.812;2024-03-29T13:58:38;1.17;;;1.08;;
39266;SDS011;24967;51.154;13.812;2024-03-29T14:01:09;3.80;;;1.98;;
39266;SDS011;24967;51.154;13.812;2024-03-29T14:03:35;12.40;;;7.00;;
39266;SDS011;24967;51.154;13.812;2024-03-29T14:06:06;5.95;;;3.55;;
39266;SDS011;24967;51.154;13.812;2024-03-29T14:08:36;3.25;;;2.85;;
39266;SDS011;24967;51.154;13.812;2024-03-29T14:11:02;1.35;;;1.25;;
39266;SDS011;24967;51.154;13.812;2024-03-29T14:13:31;1.40;;;0.70;;
39266;SDS011;24967;51.154;13.812;2024-03-29T14:16:02;50.30;;;18.75;;
39266;SDS011;24967;51.154;13.812;2024-03-29T14:21:05;27.65;;;13.15;;
39266;SDS011;24967;51.154;13.812;2024-03-29T14:23:36;12.30;;;7.15;;
39266;SDS011;24967;51.154;13.812;2024-03-29T14:26:02;10.35;;;5.90;;
39266;SDS011;24967;51.154;13.812;2024-03-29T14:28:31;3.72;;;2.25;;
39266;SDS011;24967;51.154;13.812;2024-03-29T14:31:01;8.50;;;4.47;;
39266;SDS011;24967;51.154;13.812;2024-03-29T14:33:27;38.75;;;23.63;;
39266;SDS011;24967;51.154;13.812;2024-03-29T14:35:56;10.95;;;7.45;;
39266;SDS011;24967;51.154;13.812;2024-03-29T14:38:24;145.25;;;62.67;;
39266;SDS011;24967;51.154;13.812;2024-03-29T14:40:50;177.35;;;64.85;;
39266;SDS011;24967;51.154;13.812;2024-03-29T14:43:17;83.07;;;29.23;;
39266;SDS011;24967;51.154;13.812;2024-03-29T14:45:43;57.45;;;22.35;;
39266;SDS011;24967;51.154;13.812;2024-03-29T14:48:10;29.75;;;13.05;;
39266;SDS011;24967;51.154;13.812;2024-03-29T14:50:36;39.20;;;19.13;;
39266;SDS011;24967;51.154;13.812;2024-03-29T14:53:02;25.45;;;14.35;;
39266;SDS011;24967;51.154;13.812;2024-03-29T14:55:30;13.15;;;8.25;;
39266;SDS011;24967;51.154;13.812;2024-03-29T14:57:56;8.93;;;5.82;;
39266;SDS011;24967;51.154;13.812;2024-03-29T15:00:23;6.32;;;4.22;;
39266;SDS011;24967;51.154;13.812;2024-03-29T15:02:49;4.35;;;2.40;;
39266;SDS011;24967;51.154;13.812;2024-03-29T15:05:16;1.55;;;1.38;;
39266;SDS011;24967;51.154;13.812;2024-03-29T15:07:42;1.40;;;1.30;;